Alma, Arkansas
Current Conditions -  °F | °C
As of 9:53 AM on Friday 31 Oct 2014 (Local Time) from KFSM Reporting Station
Clear Clear  
Wind Chill: 55°   Ceiling: Unl
Heat Index: 55°   Visibility: 10mi
Dew Point: 41°   Wind: 16mph
Humidity: 59%   Direction: 350°N
Pressure: 30.31"   Gusts: 22mph
Location:  35.48°N, 94.22°W
Report Text: KFSM 311453Z 35014G19KT 10SM CLR 13/05 A3031 RMK AO2 SLP261 T01280050 53024
Loading
Personal Weather Stations






























Interactive Weather Map
Tropical Storm Tracking
New forecast layout! Learn more

10-Day Weather Forecast

Advertisements
Track Severe Weather on mobile